createdAt,value
2022-09-26T00:01:36.297Z,80.00
2022-09-26T00:04:10.173Z,80.50
2022-09-26T00:06:38.009Z,80.71
2022-09-26T00:09:06.750Z,80.63
2022-09-26T00:11:34.942Z,81.15
2022-09-26T00:14:07.414Z,81.16
2022-09-26T00:16:35.437Z,81.42
2022-09-26T00:19:03.320Z,81.41
2022-09-26T00:21:31.609Z,81.96
2022-09-26T00:24:00.469Z,82.42
2022-09-26T00:26:30.937Z,82.58
2022-09-26T00:29:00.945Z,82.80
2022-09-26T00:31:31.018Z,83.34
2022-09-26T00:33:59.572Z,83.61
2022-09-26T00:36:37.638Z,84.19
2022-09-26T00:39:07.907Z,84.47
2022-09-26T00:41:36.280Z,84.75
2022-09-26T00:44:24.000Z,84.90
2022-09-26T00:46:52.052Z,85.26
2022-09-26T00:49:32.605Z,85.63
2022-09-26T00:52:14.687Z,86.01
2022-09-26T00:54:45.704Z,86.43
2022-09-26T00:57:17.878Z,86.51
2022-09-26T00:59:54.458Z,86.86
2022-09-26T01:02:25.959Z,86.92
2022-09-26T01:04:54.632Z,86.87
2022-09-26T01:07:26.111Z,87.40
2022-09-26T01:09:55.088Z,87.78
2022-09-26T01:12:23.292Z,87.78
2022-09-26T01:14:53.690Z,88.62
2022-09-26T01:17:24.644Z,88.38
2022-09-26T01:20:28.155Z,88.61
2022-09-26T01:23:39.967Z,89.23
2022-09-26T01:26:22.536Z,89.56
2022-09-26T01:29:35.100Z,89.78
2022-09-26T01:32:30.418Z,90.14
2022-09-26T01:35:12.780Z,90.18
2022-09-26T01:38:16.987Z,90.71
2022-09-26T01:41:03.476Z,91.34
2022-09-26T01:43:43.471Z,91.42
2022-09-26T01:46:35.209Z,91.33
2022-09-26T01:49:19.252Z,91.66
2022-09-26T01:52:00.694Z,91.36
2022-09-26T01:54:36.506Z,91.57
2022-09-26T01:57:08.954Z,91.75
2022-09-26T01:59:46.873Z,91.67
2022-09-26T02:02:22.166Z,91.85
2022-09-26T02:04:57.189Z,91.89
2022-09-26T02:07:35.717Z,92.08
2022-09-26T02:10:14.077Z,92.16
2022-09-26T02:12:45.932Z,92.24
2022-09-26T02:15:20.073Z,92.29
2022-09-26T02:17:56.066Z,92.49
2022-09-26T02:20:31.282Z,92.40
2022-09-26T02:23:03.612Z,92.20
2022-09-26T02:25:31.920Z,92.21
2022-09-26T02:27:59.464Z,92.16
2022-09-26T02:30:27.467Z,92.15
2022-09-26T02:32:56.271Z,91.97
2022-09-26T02:35:43.138Z,92.17
2022-09-26T02:38:12.266Z,92.18
2022-09-26T02:40:51.224Z,92.03
2022-09-26T02:43:31.206Z,91.98
2022-09-26T02:46:27.220Z,92.22
2022-09-26T02:49:30.249Z,92.31
2022-09-26T02:52:04.771Z,92.43
2022-09-26T02:55:09.633Z,91.96
2022-09-26T02:57:37.654Z,91.86
2022-09-26T03:00:17.588Z,91.87
2022-09-26T03:03:10.731Z,92.20
2022-09-26T03:05:41.970Z,92.13
2022-09-26T03:08:15.880Z,91.95
2022-09-26T03:10:45.453Z,91.80
2022-09-26T03:13:17.114Z,91.58
2022-09-26T03:15:51.869Z,91.44
2022-09-26T03:18:26.228Z,91.26
2022-09-26T03:20:54.972Z,91.30
2022-09-26T03:23:24.249Z,91.15
2022-09-26T03:26:13.885Z,90.96
2022-09-26T03:28:45.058Z,91.03
2022-09-26T03:31:13.092Z,90.83
2022-09-26T03:33:40.909Z,90.73
2022-09-26T03:36:09.521Z,90.50
2022-09-26T03:38:38.928Z,90.29
2022-09-26T03:41:09.207Z,90.16
2022-09-26T03:43:39.012Z,89.95
2022-09-26T03:46:07.526Z,89.28
2022-09-26T03:48:36.036Z,89.10
2022-09-26T03:51:13.197Z,88.74
2022-09-26T03:53:43.545Z,88.72
2022-09-26T03:56:14.911Z,88.53
2022-09-26T03:58:42.948Z,88.65
2022-09-26T04:01:13.780Z,88.11
2022-09-26T04:03:49.349Z,87.97
2022-09-26T04:06:20.237Z,87.63
2022-09-26T04:08:50.805Z,87.38
2022-09-26T04:11:21.953Z,87.22
2022-09-26T04:13:52.441Z,87.12
2022-09-26T04:16:23.165Z,87.43
2022-09-26T04:18:57.323Z,87.42
2022-09-26T04:21:27.680Z,87.42
2022-09-26T04:23:56.461Z,88.31
2022-09-26T04:26:24.785Z,87.73
2022-09-26T04:28:56.106Z,87.25
2022-09-26T04:31:27.680Z,87.95
2022-09-26T04:33:56.760Z,87.58
2022-09-26T04:36:24.554Z,87.52
2022-09-26T04:38:52.528Z,87.58
2022-09-26T04:41:21.959Z,88.27
2022-09-26T04:43:50.183Z,89.05
2022-09-26T04:46:23.723Z,89.31
2022-09-26T04:48:57.058Z,89.61
2022-09-26T04:51:26.841Z,89.82
2022-09-26T04:53:55.077Z,89.31
2022-09-26T04:56:25.223Z,88.98
2022-09-26T04:58:54.709Z,89.53
2022-09-26T05:01:23.569Z,89.71
2022-09-26T05:03:51.925Z,90.32
2022-09-26T05:06:19.296Z,91.44
2022-09-26T05:08:48.463Z,93.46
2022-09-26T05:11:18.260Z,94.69
2022-09-26T05:13:50.137Z,94.04
2022-09-26T05:16:21.466Z,94.06
2022-09-26T05:18:52.683Z,94.59
2022-09-26T05:21:21.439Z,95.78
2022-09-26T05:24:07.823Z,96.32
2022-09-26T05:26:42.855Z,96.51
2022-09-26T05:29:12.017Z,94.54
2022-09-26T05:31:41.113Z,92.55
2022-09-26T05:34:19.190Z,90.24
2022-09-26T05:36:47.951Z,89.24
2022-09-26T05:39:45.413Z,89.90
2022-09-26T05:42:13.727Z,89.66
2022-09-26T05:44:41.739Z,89.58
2022-09-26T05:47:09.919Z,90.28
2022-09-26T05:49:38.383Z,90.27
2022-09-26T05:52:06.532Z,92.52
2022-09-26T05:54:34.510Z,90.15
2022-09-26T05:57:05.899Z,91.87
2022-09-26T05:59:36.267Z,95.76
2022-09-26T06:02:07.818Z,95.24
2022-09-26T06:04:36.453Z,98.39
2022-09-26T06:07:06.950Z,99.18
2022-09-26T06:09:34.343Z,100.00
2022-09-26T06:12:03.054Z,98.69
2022-09-26T06:14:32.041Z,96.73
2022-09-26T06:16:59.407Z,95.68
2022-09-26T06:19:27.076Z,98.06
2022-09-26T06:21:54.512Z,96.68
2022-09-26T06:24:22.819Z,97.51
2022-09-26T06:26:51.657Z,95.95
2022-09-26T06:29:19.985Z,95.66
2022-09-26T06:31:47.523Z,97.77
2022-09-26T06:34:18.327Z,97.81
2022-09-26T06:36:47.573Z,97.59
2022-09-26T06:39:15.870Z,98.07
2022-09-26T06:41:45.920Z,98.01
2022-09-26T06:44:14.007Z,97.68
2022-09-26T06:46:48.694Z,96.75
2022-09-26T06:49:16.866Z,96.77
2022-09-26T06:51:46.870Z,96.50
2022-09-26T06:54:14.391Z,97.75
2022-09-26T06:56:42.144Z,97.01
2022-09-26T06:59:10.882Z,95.12
2022-09-26T07:01:39.073Z,96.31
2022-09-26T07:04:08.072Z,96.68
2022-09-26T07:06:36.556Z,96.29
2022-09-26T07:09:09.776Z,95.25
2022-09-26T07:12:09.869Z,94.24
2022-09-26T07:14:28.907Z,92.53
2022-09-26T07:16:57.506Z,94.21
2022-09-26T07:19:25.277Z,94.14
2022-09-26T07:21:52.907Z,93.94
2022-09-26T07:24:21.370Z,94.06
2022-09-26T07:26:49.904Z,94.39
2022-09-26T07:29:18.208Z,94.27
2022-09-26T07:31:46.529Z,95.49
2022-09-26T07:34:18.409Z,97.90
2022-09-26T07:36:47.775Z,98.21
2022-09-26T07:39:15.630Z,96.67
2022-09-26T07:41:46.860Z,95.87
2022-09-26T07:47:22.826Z,95.98
2022-09-26T07:50:09.870Z,95.78
2022-09-26T07:52:37.942Z,96.36
2022-09-26T07:55:09.931Z,95.90
2022-09-26T07:57:38.956Z,95.60
2022-09-26T08:00:18.804Z,95.86
2022-09-26T08:02:47.240Z,95.12
2022-09-26T08:05:20.150Z,94.99
2022-09-26T08:07:49.228Z,92.79
2022-09-26T08:10:21.975Z,92.54
2022-09-26T08:12:51.795Z,92.59
2022-09-26T08:15:20.345Z,92.09
2022-09-26T08:17:47.794Z,91.90
2022-09-26T08:20:15.541Z,91.85
2022-09-26T08:22:43.221Z,91.93
2022-09-26T08:25:11.356Z,92.21
2022-09-26T08:27:40.611Z,92.02
2022-09-26T08:30:10.454Z,91.24
2022-09-26T08:32:39.580Z,91.30
2022-09-26T08:35:12.283Z,91.90
2022-09-26T08:37:41.323Z,91.42
2022-09-26T08:40:11.428Z,92.14
2022-09-26T08:42:55.608Z,92.43
2022-09-26T08:46:21.290Z,91.48
2022-09-26T08:49:24.838Z,92.12
2022-09-26T08:51:54.468Z,92.09
2022-09-26T08:54:34.283Z,93.10
2022-09-26T08:57:23.496Z,93.82
2022-09-26T08:59:53.522Z,93.29
2022-09-26T09:02:59.201Z,94.53
2022-09-26T09:05:31.382Z,95.06
2022-09-26T09:08:03.016Z,95.13
2022-09-26T09:10:44.965Z,94.33
2022-09-26T09:13:31.624Z,95.01
2022-09-26T09:16:05.525Z,94.34
2022-09-26T09:19:09.172Z,94.76
2022-09-26T09:21:57.762Z,94.90
2022-09-26T09:24:51.737Z,94.78
2022-09-26T09:27:52.743Z,94.44
2022-09-26T09:30:43.578Z,95.29
2022-09-26T09:33:24.778Z,95.25
2022-09-26T09:35:59.636Z,95.69
2022-09-26T09:38:31.040Z,95.48
2022-09-26T09:41:07.735Z,95.03
2022-09-26T09:43:59.055Z,94.88
2022-09-26T09:46:29.510Z,94.48
2022-09-26T09:49:21.576Z,94.61
2022-09-26T09:52:01.502Z,94.17
2022-09-26T09:54:41.032Z,93.65
2022-09-26T09:57:26.469Z,94.82
2022-09-26T10:00:01.995Z,93.96
2022-09-26T10:02:31.804Z,94.80
2022-09-26T10:05:35.077Z,91.40
2022-09-26T10:08:04.625Z,90.57
2022-09-26T10:10:44.145Z,88.82
2022-09-26T10:13:14.485Z,89.06
2022-09-26T10:16:06.408Z,90.27
2022-09-26T10:19:02.348Z,89.02
2022-09-26T10:21:35.097Z,86.81
2022-09-26T10:24:04.775Z,88.15
2022-09-26T10:26:37.171Z,84.63
2022-09-26T10:29:21.296Z,84.83
2022-09-26T10:31:56.144Z,85.59
2022-09-26T10:34:30.565Z,84.67
2022-09-26T10:37:21.291Z,83.19
2022-09-26T10:40:16.819Z,84.23
2022-09-26T10:42:47.983Z,83.61
2022-09-26T10:45:17.997Z,83.31
2022-09-26T10:47:51.890Z,82.46
2022-09-26T10:50:29.420Z,82.33
2022-09-26T10:53:08.339Z,83.56
2022-09-26T10:55:55.559Z,83.67
2022-09-26T10:58:29.743Z,83.30
2022-09-26T11:01:00.740Z,82.78
2022-09-26T11:03:49.838Z,82.76
2022-09-26T11:06:35.809Z,84.83
2022-09-26T11:09:04.540Z,82.43
2022-09-26T11:11:36.755Z,81.52
2022-09-26T11:14:08.583Z,81.22
2022-09-26T11:16:53.967Z,79.84
2022-09-26T11:19:26.756Z,79.44
2022-09-26T11:22:14.555Z,79.36
2022-09-26T11:25:04.496Z,80.61
2022-09-26T11:27:46.084Z,79.31
2022-09-26T11:30:19.557Z,80.62
2022-09-26T11:32:55.258Z,80.80
2022-09-26T11:35:52.221Z,81.39
2022-09-26T11:38:42.131Z,82.75
2022-09-26T11:41:39.241Z,82.29
2022-09-26T11:44:07.834Z,82.84
2022-09-26T11:46:47.469Z,83.31
2022-09-26T11:49:22.867Z,82.77
2022-09-26T11:52:36.056Z,83.79
2022-09-26T11:55:18.855Z,85.13
2022-09-26T11:58:05.059Z,83.76
2022-09-26T12:00:35.151Z,85.11
2022-09-26T12:03:33.395Z,83.88
2022-09-26T12:06:21.724Z,84.98
2022-09-26T12:09:00.518Z,84.85
2022-09-26T12:11:57.087Z,83.96
2022-09-26T12:14:25.184Z,83.43
2022-09-26T12:17:18.789Z,82.34
2022-09-26T12:19:55.773Z,81.84
2022-09-26T12:22:41.605Z,80.37
2022-09-26T12:25:30.455Z,80.04
2022-09-26T12:28:19.801Z,81.17
2022-09-26T12:31:23.767Z,79.35
2022-09-26T12:34:08.040Z,80.50
2022-09-26T12:36:47.635Z,82.66
2022-09-26T12:39:39.111Z,79.55
2022-09-26T12:42:26.575Z,80.48
2022-09-26T12:45:18.759Z,82.02
2022-09-26T12:47:51.888Z,80.37
2022-09-26T12:50:31.984Z,80.09
2022-09-26T12:53:10.664Z,77.26
2022-09-26T12:56:07.304Z,76.64
2022-09-26T12:58:41.649Z,76.22
2022-09-26T13:01:34.124Z,75.65
2022-09-26T13:04:23.497Z,74.32
2022-09-26T13:07:22.577Z,74.65
2022-09-26T13:10:08.363Z,73.06
2022-09-26T13:13:06.228Z,74.04
2022-09-26T13:15:46.316Z,74.55
2022-09-26T13:18:26.520Z,72.52
2022-09-26T13:21:07.396Z,70.16
2022-09-26T13:24:01.252Z,73.50
2022-09-26T13:26:43.313Z,73.94
2022-09-26T13:29:20.757Z,71.50
2022-09-26T13:31:56.183Z,74.54
2022-09-26T13:34:34.877Z,74.99
2022-09-26T13:37:04.803Z,76.15
2022-09-26T13:39:52.259Z,76.91
2022-09-26T13:42:47.556Z,76.58
2022-09-26T13:45:49.032Z,74.16
2022-09-26T13:48:41.495Z,74.48
2022-09-26T13:51:21.830Z,74.83
2022-09-26T13:54:02.947Z,75.64
2022-09-26T13:56:31.320Z,75.08
2022-09-26T13:59:03.520Z,76.09
2022-09-26T14:01:31.247Z,77.25
2022-09-26T14:04:17.641Z,77.08
2022-09-26T14:07:28.827Z,75.17
2022-09-26T14:10:08.196Z,77.24
2022-09-26T14:13:08.419Z,77.67
2022-09-26T14:15:50.971Z,77.51
2022-09-26T14:18:45.030Z,77.30
2022-09-26T14:21:35.127Z,76.27
2022-09-26T14:24:20.820Z,77.20
2022-09-26T14:27:04.160Z,78.04
2022-09-26T14:29:42.401Z,78.64
2022-09-26T14:32:10.483Z,79.60
2022-09-26T14:34:57.030Z,79.53
2022-09-26T14:37:24.639Z,79.97
2022-09-26T14:40:10.446Z,79.92
2022-09-26T14:42:43.777Z,80.14
2022-09-26T14:45:17.022Z,80.18
2022-09-26T14:48:01.085Z,81.77
2022-09-26T14:50:34.458Z,79.21
2022-09-26T14:53:21.099Z,79.48
2022-09-26T14:56:06.123Z,79.99
2022-09-26T14:58:46.865Z,81.21
2022-09-26T15:01:19.648Z,81.62
2022-09-26T15:04:14.028Z,82.43
2022-09-26T15:06:48.853Z,81.45
2022-09-26T15:09:40.061Z,81.51
2022-09-26T15:12:21.191Z,81.22
2022-09-26T15:15:09.878Z,81.80
2022-09-26T15:17:41.447Z,81.93
2022-09-26T15:20:16.759Z,82.47
2022-09-26T15:22:44.990Z,83.64
2022-09-26T15:25:32.752Z,84.34
2022-09-26T15:28:01.340Z,85.00
2022-09-26T15:30:41.736Z,84.82
2022-09-26T15:33:17.587Z,85.50
2022-09-26T15:35:53.807Z,85.85
2022-09-26T15:38:23.812Z,86.12
2022-09-26T15:41:15.887Z,85.98
2022-09-26T15:43:43.311Z,87.80
2022-09-26T15:46:23.402Z,87.76
2022-09-26T15:48:51.947Z,87.99
2022-09-26T15:51:39.200Z,87.01
2022-09-26T15:54:16.076Z,88.04
2022-09-26T15:56:48.997Z,88.06
2022-09-26T15:59:40.682Z,89.03
2022-09-26T16:02:45.123Z,89.32
2022-09-26T16:05:14.356Z,89.55
2022-09-26T16:07:49.096Z,90.46
2022-09-26T16:10:29.617Z,90.61
2022-09-26T16:13:00.559Z,90.99
2022-09-26T16:15:30.249Z,91.37
2022-09-26T16:17:58.808Z,91.09
2022-09-26T16:33:27.740Z,88.66
2022-09-26T16:36:03.016Z,88.66
2022-09-26T16:38:35.657Z,91.32
2022-09-26T16:41:31.512Z,92.04
2022-09-26T16:44:23.849Z,93.18
2022-09-26T16:46:55.661Z,94.15
2022-09-26T16:49:39.825Z,95.72
2022-09-26T16:52:36.391Z,94.95
2022-09-26T16:55:08.923Z,94.75
2022-09-26T16:57:56.825Z,94.90
2022-09-26T17:00:49.976Z,95.53
2022-09-26T17:03:21.598Z,95.81
2022-09-26T17:05:49.578Z,95.72
2022-09-26T17:08:18.404Z,96.06
2022-09-26T17:10:46.509Z,98.44
2022-09-26T17:13:26.361Z,99.42
2022-09-26T17:15:56.285Z,99.31
2022-09-26T17:18:32.391Z,98.68
2022-09-26T17:21:00.290Z,98.52
2022-09-26T17:23:44.568Z,98.56
2022-09-26T17:26:19.526Z,99.99
2022-09-26T17:28:47.636Z,99.45
2022-09-26T17:31:20.987Z,100.00
2022-09-26T17:33:52.273Z,100.00
2022-09-26T17:36:26.111Z,100.00
2022-09-26T17:38:54.706Z,100.00
2022-09-26T17:41:23.090Z,100.00
2022-09-26T17:43:58.488Z,100.00
2022-09-26T17:46:27.087Z,100.00
2022-09-26T17:48:56.375Z,100.00
2022-09-26T17:51:24.352Z,100.00
2022-09-26T17:53:52.558Z,100.00
2022-09-26T17:56:20.449Z,100.00
2022-09-26T17:58:49.516Z,100.00
2022-09-26T18:01:26.412Z,100.00
2022-09-26T18:04:00.436Z,100.00
2022-09-26T18:06:31.476Z,100.00
2022-09-26T18:09:05.430Z,100.00
2022-09-26T18:11:34.736Z,100.00
2022-09-26T18:14:04.477Z,100.00
2022-09-26T18:16:31.877Z,100.00
2022-09-26T18:19:04.713Z,100.00
2022-09-26T18:21:35.757Z,100.00
2022-09-26T18:24:06.649Z,100.00
2022-09-26T18:26:47.138Z,100.00
2022-09-26T18:29:35.738Z,100.00
2022-09-26T18:32:11.853Z,100.00
2022-09-26T18:34:39.347Z,100.00
2022-09-26T18:37:08.609Z,100.00
2022-09-26T18:39:36.361Z,100.00
2022-09-26T18:42:09.302Z,100.00
2022-09-26T18:44:37.276Z,100.00
2022-09-26T18:47:11.092Z,100.00
2022-09-26T18:49:38.981Z,100.00
2022-09-26T18:52:12.583Z,100.00
2022-09-26T18:54:43.958Z,100.00
2022-09-26T18:57:31.103Z,100.00
2022-09-26T19:00:03.368Z,100.00
2022-09-26T19:02:38.369Z,100.00
2022-09-26T19:05:07.888Z,100.00
2022-09-26T19:07:35.652Z,100.00
2022-09-26T19:10:03.377Z,100.00
2022-09-26T19:12:31.577Z,100.00
2022-09-26T19:14:59.024Z,100.00
2022-09-26T19:17:26.513Z,100.00
2022-09-26T19:19:54.312Z,100.00
2022-09-26T19:22:21.739Z,100.00
2022-09-26T19:24:56.041Z,100.00
2022-09-26T19:27:28.915Z,100.00
2022-09-26T19:30:17.384Z,100.00
2022-09-26T19:32:50.523Z,100.00
2022-09-26T19:35:30.205Z,100.00
2022-09-26T19:37:59.546Z,100.00
2022-09-26T19:40:27.983Z,100.00
2022-09-26T19:42:57.179Z,100.00
2022-09-26T19:45:26.635Z,100.00
2022-09-26T19:47:55.780Z,100.00
2022-09-26T19:50:25.722Z,100.00
2022-09-26T19:52:55.323Z,100.00
2022-09-26T19:55:25.658Z,100.00
2022-09-26T19:57:56.053Z,100.00
2022-09-26T20:00:23.926Z,100.00
2022-09-26T20:02:52.787Z,100.00
2022-09-26T20:05:23.300Z,100.00
2022-09-26T20:07:51.676Z,100.00
2022-09-26T20:10:22.623Z,100.00
2022-09-26T20:12:50.192Z,100.00
2022-09-26T20:15:22.364Z,100.00
2022-09-26T20:17:50.917Z,100.00
2022-09-26T20:20:25.143Z,100.00
2022-09-26T20:22:55.032Z,100.00
2022-09-26T20:25:27.019Z,100.00
2022-09-26T20:27:55.891Z,100.00
2022-09-26T20:30:42.560Z,100.00
2022-09-26T20:33:11.051Z,100.00
2022-09-26T20:35:43.229Z,100.00
2022-09-26T20:38:25.892Z,100.00
2022-09-26T20:41:34.592Z,100.00
2022-09-26T20:44:06.383Z,100.00
2022-09-26T20:46:38.023Z,100.00
2022-09-26T20:49:16.184Z,100.00
2022-09-26T20:51:44.733Z,100.00
2022-09-26T20:54:32.735Z,100.00
2022-09-26T20:57:01.374Z,100.00
2022-09-26T20:59:29.261Z,100.00
2022-09-26T21:01:57.535Z,100.00
2022-09-26T21:04:31.629Z,100.00
2022-09-26T21:06:59.529Z,100.00
2022-09-26T21:09:27.015Z,100.00
2022-09-26T21:11:54.504Z,100.00
2022-09-26T21:14:22.347Z,100.00
2022-09-26T21:16:52.145Z,100.00
2022-09-26T21:19:22.744Z,100.00
2022-09-26T21:21:52.044Z,100.00
2022-09-26T21:24:41.988Z,100.00
2022-09-26T21:27:13.269Z,100.00
2022-09-26T21:29:41.728Z,100.00
2022-09-26T21:32:16.968Z,100.00
2022-09-26T21:34:58.432Z,100.00
2022-09-26T21:37:25.988Z,100.00
2022-09-26T21:39:54.171Z,100.00
2022-09-26T21:42:21.886Z,100.00
2022-09-26T21:44:56.916Z,100.00
2022-09-26T21:47:24.750Z,100.00
2022-09-26T21:49:53.503Z,100.00
2022-09-26T21:52:37.052Z,100.00
2022-09-26T21:55:07.979Z,100.00
2022-09-26T21:57:41.649Z,100.00
2022-09-26T22:00:11.390Z,100.00
2022-09-26T22:02:41.755Z,100.00
2022-09-26T22:05:11.732Z,100.00
2022-09-26T22:07:39.248Z,100.00
2022-09-26T22:10:08.144Z,100.00
2022-09-26T22:12:35.985Z,100.00
2022-09-26T22:15:04.161Z,100.00
2022-09-26T22:17:31.844Z,100.00
2022-09-26T22:19:59.748Z,100.00
2022-09-26T22:22:27.260Z,100.00
2022-09-26T22:24:54.713Z,100.00
2022-09-26T22:27:22.475Z,100.00
2022-09-26T22:29:50.094Z,100.00
2022-09-26T22:32:17.544Z,100.00
2022-09-26T22:34:45.363Z,100.00
2022-09-26T22:37:12.877Z,100.00
2022-09-26T22:39:40.521Z,100.00
2022-09-26T22:42:08.437Z,100.00
2022-09-26T22:44:35.905Z,100.00
2022-09-26T22:47:03.674Z,100.00
2022-09-26T22:49:31.987Z,100.00
2022-09-26T22:52:00.368Z,100.00
2022-09-26T22:54:27.812Z,100.00
2022-09-26T22:56:55.880Z,100.00
2022-09-26T22:59:23.509Z,100.00
2022-09-26T23:01:51.730Z,100.00
2022-09-26T23:04:19.616Z,100.00
2022-09-26T23:06:47.016Z,100.00
2022-09-26T23:09:14.638Z,100.00
2022-09-26T23:11:43.158Z,100.00
2022-09-26T23:14:10.600Z,100.00
2022-09-26T23:16:38.486Z,100.00
2022-09-26T23:19:06.335Z,100.00
2022-09-26T23:21:33.844Z,100.00
2022-09-26T23:24:01.575Z,100.00
2022-09-26T23:26:31.838Z,100.00
2022-09-26T23:28:59.874Z,100.00
2022-09-26T23:31:28.357Z,100.00
2022-09-26T23:33:57.518Z,100.00
2022-09-26T23:36:25.352Z,100.00
2022-09-26T23:38:53.483Z,100.00
2022-09-26T23:41:22.277Z,100.00
2022-09-26T23:43:49.704Z,100.00
2022-09-26T23:46:17.365Z,100.00
2022-09-26T23:48:45.736Z,100.00
2022-09-26T23:51:13.267Z,100.00
2022-09-26T23:53:40.808Z,100.00
2022-09-26T23:56:11.169Z,100.00
2022-09-26T23:58:38.758Z,100.00
